createdAt,value
2023-11-27T00:01:05.802Z,12.65
2023-11-27T00:03:33.571Z,14.82
2023-11-27T00:06:01.308Z,14.10
2023-11-27T00:08:30.051Z,12.23
2023-11-27T00:11:00.153Z,14.00
2023-11-27T00:13:29.147Z,0.57
2023-11-27T00:15:56.802Z,12.45
2023-11-27T00:18:24.541Z,0.85
2023-11-27T00:20:53.181Z,12.65
2023-11-27T00:23:25.419Z,12.68
2023-11-27T00:25:53.198Z,13.63
2023-11-27T00:28:20.846Z,13.07
2023-11-27T00:30:53.245Z,15.82
2023-11-27T00:33:21.743Z,12.02
2023-11-27T00:35:49.988Z,12.80
2023-11-27T00:38:17.843Z,17.52
2023-11-27T00:40:49.038Z,15.15
2023-11-27T00:43:17.355Z,13.15
2023-11-27T00:45:45.204Z,14.68
2023-11-27T00:48:13.583Z,13.18
2023-11-27T00:50:41.429Z,11.60
2023-11-27T00:53:09.083Z,16.20
2023-11-27T00:55:37.123Z,18.67
2023-11-27T00:58:04.838Z,0.90
2023-11-27T01:00:32.566Z,17.98
2023-11-27T01:03:00.323Z,18.35
2023-11-27T01:05:28.503Z,18.98
2023-11-27T01:07:56.260Z,17.05
2023-11-27T01:10:26.609Z,18.63
2023-11-27T01:12:55.205Z,1.50
2023-11-27T01:15:23.063Z,19.75
2023-11-27T01:17:50.955Z,20.75
2023-11-27T01:20:21.027Z,18.85
2023-11-27T01:22:48.741Z,1.60
2023-11-27T01:25:20.093Z,20.10
2023-11-27T01:27:48.649Z,18.90
2023-11-27T01:30:20.035Z,21.73
2023-11-27T01:32:47.822Z,17.08
2023-11-27T01:35:15.584Z,19.58
2023-11-27T01:37:43.296Z,19.05
2023-11-27T01:40:11.638Z,19.00
2023-11-27T01:42:39.525Z,18.38
2023-11-27T01:45:08.203Z,19.50
2023-11-27T01:47:37.067Z,21.38
2023-11-27T01:50:07.209Z,19.02
2023-11-27T01:52:36.528Z,16.65
2023-11-27T01:55:04.714Z,18.67
2023-11-27T01:57:32.678Z,16.17
2023-11-27T02:00:03.117Z,16.45
2023-11-27T02:02:48.619Z,0.93
2023-11-27T02:05:19.807Z,15.55
2023-11-27T02:07:47.599Z,17.10
2023-11-27T02:10:18.899Z,16.27
2023-11-27T02:12:46.590Z,16.55
2023-11-27T02:15:14.799Z,18.63
2023-11-27T02:17:42.479Z,14.82
2023-11-27T02:20:12.281Z,16.55
2023-11-27T02:22:39.915Z,17.33
2023-11-27T02:25:08.423Z,0.77
2023-11-27T02:27:37.476Z,16.73
2023-11-27T02:30:05.771Z,16.70
2023-11-27T02:32:33.998Z,15.43
2023-11-27T02:35:01.724Z,11.25
2023-11-27T02:37:33.542Z,11.00
2023-11-27T02:40:02.291Z,0.70
2023-11-27T02:42:30.080Z,10.15
2023-11-27T02:44:58.185Z,10.25
2023-11-27T02:47:27.936Z,12.27
2023-11-27T02:49:55.726Z,9.40
2023-11-27T02:52:23.411Z,13.23
2023-11-27T02:54:52.386Z,1.15
2023-11-27T02:57:20.661Z,9.38
2023-11-27T02:59:48.315Z,9.13
2023-11-27T03:02:16.182Z,8.48
2023-11-27T03:04:46.383Z,9.32
2023-11-27T03:07:14.388Z,8.23
2023-11-27T03:09:43.943Z,8.70
2023-11-27T03:12:12.251Z,1.35
2023-11-27T03:14:39.987Z,7.53
2023-11-27T03:17:07.688Z,7.50
2023-11-27T03:19:47.600Z,10.95
2023-11-27T03:22:21.921Z,2.75
2023-11-27T03:24:49.712Z,8.38
2023-11-27T03:27:17.434Z,8.38
2023-11-27T03:29:45.157Z,9.05
2023-11-27T03:32:12.872Z,7.45
2023-11-27T03:34:40.677Z,8.77
2023-11-27T03:37:11.406Z,7.30
2023-11-27T03:39:39.183Z,8.15
2023-11-27T03:42:07.192Z,8.60
2023-11-27T03:44:34.819Z,9.05
2023-11-27T03:47:02.553Z,7.55
2023-11-27T03:49:30.210Z,8.00
2023-11-27T03:51:57.984Z,10.45
2023-11-27T03:54:25.921Z,14.05
2023-11-27T03:56:53.608Z,0.57
2023-11-27T03:59:22.034Z,10.95
2023-11-27T04:01:49.882Z,0.77
2023-11-27T04:04:17.985Z,8.50
2023-11-27T04:06:48.686Z,1.13
2023-11-27T04:09:20.122Z,8.23
2023-11-27T04:11:49.912Z,9.23
2023-11-27T04:14:17.763Z,8.63
2023-11-27T04:16:45.566Z,8.35
2023-11-27T04:19:13.539Z,8.23
2023-11-27T04:21:41.450Z,0.45
2023-11-27T04:24:09.224Z,8.18
2023-11-27T04:26:37.044Z,6.82
2023-11-27T04:29:06.937Z,8.48
2023-11-27T04:31:34.918Z,7.22
2023-11-27T04:34:02.865Z,7.03
2023-11-27T04:36:30.525Z,7.68
2023-11-27T04:38:58.287Z,8.85
2023-11-27T04:41:25.971Z,0.60
2023-11-27T04:43:53.629Z,7.15
2023-11-27T04:46:21.468Z,9.82
2023-11-27T04:48:49.502Z,10.60
2023-11-27T04:51:17.370Z,6.50
2023-11-27T04:53:45.113Z,7.60
2023-11-27T04:56:12.911Z,8.23
2023-11-27T04:58:40.607Z,5.72
2023-11-27T05:01:08.362Z,9.13
2023-11-27T05:03:36.252Z,5.50
2023-11-27T05:06:05.003Z,7.75
2023-11-27T05:08:32.719Z,6.38
2023-11-27T05:11:00.427Z,5.88
2023-11-27T05:13:30.535Z,5.97
2023-11-27T05:15:58.217Z,4.82
2023-11-27T05:18:25.878Z,5.18
2023-11-27T05:20:53.760Z,7.82
2023-11-27T05:23:21.376Z,6.47
2023-11-27T05:25:52.149Z,5.57
2023-11-27T05:28:19.809Z,5.70
2023-11-27T05:30:49.937Z,7.88
2023-11-27T05:33:21.050Z,8.02
2023-11-27T05:35:48.769Z,5.90
2023-11-27T05:38:16.485Z,7.10
2023-11-27T06:25:19.297Z,11.90
2023-11-27T06:27:49.963Z,9.73
2023-11-27T06:30:22.697Z,11.60
2023-11-27T06:32:50.390Z,10.05
2023-11-27T06:35:18.526Z,9.98
2023-11-27T06:37:46.221Z,8.45
2023-11-27T06:40:18.311Z,9.90
2023-11-27T06:42:48.380Z,7.90
2023-11-27T06:45:18.779Z,8.30
2023-11-27T06:47:46.474Z,15.82
2023-11-27T06:50:14.216Z,8.38
2023-11-27T06:52:41.786Z,12.48
2023-11-27T06:55:15.190Z,11.20
2023-11-27T06:57:42.871Z,10.45
2023-11-27T07:00:12.207Z,9.05
2023-11-27T07:02:40.001Z,12.07
2023-11-27T07:05:08.158Z,10.60
2023-11-27T07:07:35.935Z,9.30
2023-11-27T07:10:30.448Z,11.50
2023-11-27T07:12:58.222Z,9.40
2023-11-27T07:15:51.100Z,10.95
2023-11-27T07:18:20.743Z,11.82
2023-11-27T07:20:50.244Z,8.77
2023-11-27T07:23:18.006Z,11.13
2023-11-27T07:26:16.629Z,14.02
2023-11-27T07:29:18.511Z,27.35
2023-11-27T07:31:46.288Z,18.23
2023-11-27T07:34:15.307Z,27.25
2023-11-27T07:36:42.947Z,27.85
2023-11-27T07:39:12.035Z,22.00
2023-11-27T07:41:40.260Z,15.75
2023-11-27T07:44:16.575Z,19.10
2023-11-27T07:46:44.309Z,26.33
2023-11-27T07:49:12.097Z,20.20
2023-11-27T07:51:39.670Z,15.30
2023-11-27T07:54:07.411Z,11.35
2023-11-27T07:56:35.016Z,13.25
2023-11-27T07:59:02.597Z,15.48
2023-11-27T08:01:30.246Z,11.80
2023-11-27T08:03:59.133Z,16.30
2023-11-27T08:06:27.082Z,15.68
2023-11-27T08:08:55.488Z,14.25
2023-11-27T08:11:34.236Z,12.40
2023-11-27T08:14:02.322Z,9.02
2023-11-27T08:16:30.367Z,14.23
2023-11-27T08:18:58.092Z,15.05
2023-11-27T08:21:26.353Z,13.55
2023-11-27T08:23:55.435Z,14.68
2023-11-27T08:26:24.022Z,13.43
2023-11-27T08:28:51.552Z,13.65
2023-11-27T08:31:29.471Z,15.23
2023-11-27T08:33:57.193Z,12.35
2023-11-27T08:36:29.070Z,12.63
2023-11-27T08:39:32.082Z,12.60
2023-11-27T08:42:00.278Z,14.65
2023-11-27T08:44:28.151Z,12.23
2023-11-27T08:47:04.971Z,9.88
2023-11-27T08:49:32.828Z,11.00
2023-11-27T08:52:01.021Z,10.20
2023-11-27T08:54:33.996Z,8.27
2023-11-27T09:06:36.905Z,12.45
2023-11-27T10:38:12.765Z,13.90
2023-11-27T10:41:09.755Z,17.13
2023-11-27T11:41:08.929Z,16.23
2023-11-27T11:43:53.373Z,14.75
2023-11-27T11:51:01.636Z,11.55
2023-11-27T11:54:14.284Z,9.63
2023-11-27T11:56:48.952Z,8.30
2023-11-27T12:00:36.314Z,10.75
2023-11-27T12:03:06.868Z,7.32
2023-11-27T12:05:38.687Z,9.60
2023-11-27T12:08:06.800Z,8.68
2023-11-27T12:10:42.106Z,8.88
2023-11-27T12:13:16.414Z,13.65
2023-11-27T12:16:24.524Z,15.43
2023-11-27T12:18:52.820Z,16.98
2023-11-27T12:21:53.943Z,14.52
2023-11-27T12:30:59.620Z,13.70
2023-11-27T12:32:04.603Z,12.75
2023-11-27T12:32:11.869Z,13.27
2023-11-27T12:48:36.602Z,15.48
2023-11-27T13:07:20.936Z,9.43
2023-11-27T13:09:48.723Z,11.10
2023-11-27T13:12:27.067Z,16.65
2023-11-27T13:18:48.025Z,12.65
2023-11-27T13:21:24.795Z,12.95
2023-11-27T13:21:51.927Z,13.13
2023-11-27T13:23:55.673Z,12.02
2023-11-27T13:26:30.034Z,12.40
2023-11-27T13:29:01.638Z,18.77
2023-11-27T13:31:34.417Z,11.15
2023-11-27T13:34:33.657Z,13.15
2023-11-27T13:37:42.752Z,15.13
2023-11-27T13:40:12.859Z,12.88
2023-11-27T13:43:24.070Z,12.32
2023-11-27T13:49:31.879Z,12.70
2023-11-27T13:52:13.290Z,13.90
2023-11-27T13:54:59.827Z,12.85
2023-11-27T14:07:53.228Z,13.43
2023-11-27T14:14:45.474Z,18.15
2023-11-27T14:14:51.764Z,16.58
2023-11-27T14:18:23.039Z,16.48
2023-11-27T14:21:44.754Z,17.38
2023-11-27T14:25:25.052Z,20.55
2023-11-27T14:28:32.126Z,17.50
2023-11-27T14:31:03.069Z,18.40
2023-11-27T14:33:32.129Z,17.65
2023-11-27T14:35:59.891Z,16.73
2023-11-27T14:38:28.571Z,15.85
2023-11-27T14:40:58.632Z,16.63
2023-11-27T14:43:26.971Z,15.80
2023-11-27T14:46:00.220Z,18.23
2023-11-27T14:48:33.634Z,27.25
2023-11-27T14:51:02.371Z,21.35
2023-11-27T15:06:21.578Z,15.70
2023-11-27T15:08:55.689Z,14.32
2023-11-27T17:44:06.878Z,15.63
2023-11-27T17:47:22.313Z,17.10
2023-11-27T22:31:29.227Z,22.55
2023-11-27T23:15:42.214Z,29.50
2023-11-27T23:18:38.283Z,24.42
2023-11-27T23:21:06.316Z,26.60
2023-11-27T23:23:41.885Z,26.27
2023-11-27T23:26:09.745Z,28.30
2023-11-27T23:28:39.889Z,28.30
2023-11-27T23:31:12.976Z,27.73
2023-11-27T23:33:43.918Z,25.45
2023-11-27T23:36:14.007Z,25.20
2023-11-27T23:38:42.060Z,27.15
2023-11-27T23:41:16.402Z,26.17
2023-11-27T23:43:51.310Z,25.77
2023-11-27T23:46:21.622Z,26.95
2023-11-27T23:49:00.700Z,23.00
2023-11-27T23:51:31.631Z,26.15
2023-11-27T23:54:03.881Z,24.02
2023-11-27T23:56:37.886Z,24.13
2023-11-27T23:59:23.190Z,22.50
